Time;durP1;ratioP1;P1;durP2;ratioP2;P2;SDS_P1;SDS_P2;PMS_P1;PMS_P2;Temp;Humidity;BMP_temperature;BMP_pressure;BME280_temperature;BME280_humidity;BME280_pressure;Samples;Min_cycle;Max_cycle;Signal;HPM_P1;HPM_P2
2024/02/25 00:02:36;;;;;;;1999.90;999.90;;;;;;;5.06;100.00;99961.91;10216829;29;20538;-66
2024/02/25 00:07:39;;;;;;;1999.90;999.90;;;;;;;5.19;100.00;99956.97;10215505;29;20052;-66
2024/02/25 00:12:41;;;;;;;1999.90;999.90;;;;;;;5.03;100.00;99955.13;10215905;29;20503;-66
2024/02/25 00:17:43;;;;;;;1999.90;999.90;;;;;;;5.15;100.00;99947.66;10215250;29;20404;-66
2024/02/25 00:22:46;;;;;;;1999.90;999.90;;;;;;;5.01;100.00;99953.53;10215667;29;20051;-66
2024/02/25 00:27:48;;;;;;;1999.90;999.90;;;;;;;5.16;100.00;99941.53;10215531;29;20087;-66
2024/02/25 00:32:51;;;;;;;1999.90;999.90;;;;;;;5.12;100.00;99942.63;10215189;29;20067;-66
2024/02/25 00:37:53;;;;;;;1999.90;999.90;;;;;;;5.22;100.00;99946.44;10215044;29;20090;-66
2024/02/25 00:42:55;;;;;;;1999.90;999.90;;;;;;;5.29;100.00;99945.22;10215151;29;20058;-66
2024/02/25 00:47:58;;;;;;;1999.90;999.90;;;;;;;5.09;100.00;99950.53;10214320;29;20043;-66
2024/02/25 00:53:01;;;;;;;1999.90;999.90;;;;;;;5.11;100.00;99946.09;10214870;29;20064;-66
2024/02/25 00:58:03;;;;;;;1999.90;999.90;;;;;;;5.05;100.00;99942.06;10214182;29;20571;-66
2024/02/25 01:03:06;;;;;;;1999.90;999.90;;;;;;;5.25;100.00;99951.47;10214024;29;20053;-66
2024/02/25 01:08:08;;;;;;;1999.90;999.90;;;;;;;5.09;100.00;99951.38;10213794;29;20047;-66
2024/02/25 01:13:10;;;;;;;1999.90;999.90;;;;;;;5.00;100.00;99946.63;10213850;29;20446;-66
2024/02/25 01:18:13;;;;;;;1999.90;999.90;;;;;;;5.15;100.00;99950.25;10213809;29;20480;-66
2024/02/25 01:23:15;;;;;;;1999.90;999.90;;;;;;;5.07;100.00;99942.00;10212582;29;20052;-66
2024/02/25 01:28:18;;;;;;;1999.90;999.90;;;;;;;5.15;100.00;99947.66;10214199;29;20048;-66
2024/02/25 01:33:20;;;;;;;1999.90;999.90;;;;;;;5.07;100.00;99942.81;10213549;29;20052;-66
2024/02/25 01:38:23;;;;;;;1999.90;999.90;;;;;;;5.16;100.00;99938.94;10212697;29;20055;-66
2024/02/25 01:43:26;;;;;;;1999.90;999.90;;;;;;;5.07;100.00;99929.84;10214300;29;20055;-66
2024/02/25 01:48:28;;;;;;;1999.90;999.90;;;;;;;5.11;100.00;99940.91;10220238;29;20050;-66
2024/02/25 01:53:31;;;;;;;1999.90;999.90;;;;;;;5.03;100.00;99939.53;10220639;29;20059;-66
2024/02/25 01:58:33;;;;;;;1999.90;999.90;;;;;;;5.29;100.00;99934.84;10221538;29;20054;-66
2024/02/25 02:03:36;;;;;;;1999.90;999.90;;;;;;;5.22;100.00;99931.69;10220948;29;20052;-66
2024/02/25 02:08:39;;;;;;;1999.90;999.90;;;;;;;5.73;100.00;99930.91;10218861;29;20483;-66
2024/02/25 02:13:41;;;;;;;1999.90;999.90;;;;;;;5.31;100.00;99930.44;10219382;29;20059;-66
2024/02/25 02:18:47;;;;;;;1999.90;999.90;;;;;;;5.60;100.00;99925.53;10219182;29;20044;-66
2024/02/25 02:23:53;;;;;;;1999.90;999.90;;;;;;;5.24;100.00;99925.59;10219081;29;20055;-66
2024/02/25 02:28:55;;;;;;;1999.90;999.90;;;;;;;5.34;100.00;99921.63;10219886;29;20079;-66
2024/02/25 02:33:58;;;;;;;1999.90;999.90;;;;;;;5.34;100.00;99924.22;10203559;29;20140;-66
2024/02/25 02:39:00;;;;;;;1999.90;999.90;;;;;;;5.54;100.00;99915.44;10219311;29;20392;-66
2024/02/25 02:44:03;;;;;;;1999.90;999.90;;;;;;;5.29;100.00;99919.25;10218249;29;20091;-66
2024/02/25 02:49:05;;;;;;;1999.90;999.90;;;;;;;5.36;100.00;99925.84;10219212;29;20052;-66
2024/02/25 02:54:08;;;;;;;1999.90;999.90;;;;;;;5.37;100.00;99924.09;10218362;29;20055;-66
2024/02/25 02:59:10;;;;;;;1999.90;999.90;;;;;;;5.37;100.00;99918.91;10218235;29;20510;-66
2024/02/25 03:04:12;;;;;;;1999.90;999.90;;;;;;;5.47;100.00;99914.09;10218547;29;20060;-66
2024/02/25 03:09:15;;;;;;;1999.90;999.90;;;;;;;5.61;100.00;99921.16;10218525;29;20055;-66
2024/02/25 03:14:18;;;;;;;1999.90;999.90;;;;;;;5.50;100.00;99911.34;10217700;29;20484;-66
2024/02/25 03:19:20;;;;;;;1999.90;999.90;;;;;;;5.53;100.00;99914.63;10218115;29;20127;-66
2024/02/25 03:24:23;;;;;;;1999.90;999.90;;;;;;;5.59;100.00;99913.44;10217224;29;20052;-66
2024/02/25 03:29:25;;;;;;;1999.90;999.90;;;;;;;5.68;100.00;99909.53;10217838;29;20048;-66
2024/02/25 03:34:28;;;;;;;1999.90;999.90;;;;;;;5.68;100.00;99907.81;10216344;29;20099;-66
2024/02/25 03:39:31;;;;;;;1999.90;999.90;;;;;;;5.85;100.00;99911.28;10217144;29;20135;-66
2024/02/25 03:44:33;;;;;;;1999.90;999.90;;;;;;;5.86;100.00;99915.56;10215891;29;20051;-66
2024/02/25 03:49:40;;;;;;;1999.90;999.90;;;;;;;5.60;100.00;99909.94;10217146;29;20055;-66
2024/02/25 03:54:47;;;;;;;1999.90;999.90;;;;;;;5.52;100.00;99909.50;10214989;29;20052;-66
2024/02/25 03:59:49;;;;;;;1999.90;999.90;;;;;;;5.77;100.00;99903.88;10215976;29;20052;-66
2024/02/25 04:04:52;;;;;;;1999.90;999.90;;;;;;;5.67;100.00;99907.88;10216299;29;20083;-66
2024/02/25 04:09:54;;;;;;;1999.90;999.90;;;;;;;5.63;100.00;99906.34;10215738;29;20130;-66
2024/02/25 04:14:56;;;;;;;1999.90;999.90;;;;;;;5.73;100.00;99902.34;10216032;29;20123;-66
2024/02/25 04:19:59;;;;;;;1999.90;999.90;;;;;;;5.65;100.00;99909.69;10214733;29;20053;-66
2024/02/25 04:25:01;;;;;;;1999.90;999.90;;;;;;;5.67;100.00;99910.47;10215600;29;20059;-66
2024/02/25 04:30:04;;;;;;;1999.90;999.90;;;;;;;5.87;100.00;99902.50;10213777;29;20402;-66
2024/02/25 04:35:07;;;;;;;1999.90;999.90;;;;;;;5.88;100.00;99906.75;10215549;29;20044;-66
2024/02/25 04:40:10;;;;;;;1999.90;999.90;;;;;;;5.69;100.00;99917.25;10215096;29;20067;-66
2024/02/25 04:45:13;;;;;;;1999.90;999.90;;;;;;;5.84;100.00;99915.63;10215028;29;20050;-66
2024/02/25 04:50:15;;;;;;;1999.90;999.90;;;;;;;5.62;100.00;99923.69;10214299;29;20415;-66
2024/02/25 04:55:18;;;;;;;1999.90;999.90;;;;;;;5.61;100.00;99922.00;10197969;29;20048;-66
2024/02/25 05:00:20;;;;;;;1999.90;999.90;;;;;;;5.63;100.00;99922.78;10214209;29;20503;-66
2024/02/25 05:05:23;;;;;;;1999.90;999.90;;;;;;;5.66;100.00;99914.81;10214028;29;20486;-66
2024/02/25 05:10:25;;;;;;;1999.90;999.90;;;;;;;5.42;100.00;99924.69;10214608;29;20051;-66
2024/02/25 05:15:28;;;;;;;1999.90;999.90;;;;;;;5.68;100.00;99927.72;10213904;29;20128;-66
2024/02/25 05:20:31;;;;;;;1999.90;999.90;;;;;;;5.49;100.00;99931.25;10218712;29;20059;-66
2024/02/25 05:25:33;;;;;;;1999.90;999.90;;;;;;;5.61;100.00;99923.75;10205337;29;20048;-66
2024/02/25 05:30:36;;;;;;;1999.90;999.90;;;;;;;5.59;100.00;99927.28;10222176;29;20048;-66
2024/02/25 05:35:39;;;;;;;1999.90;999.90;;;;;;;5.75;100.00;99929.94;10221971;29;20048;-66
2024/02/25 05:40:43;;;;;;;1999.90;999.90;;;;;;;5.65;100.00;99930.47;10221568;29;20087;-66
2024/02/25 05:45:45;;;;;;;1999.90;999.90;;;;;;;5.77;100.00;99930.69;10220939;29;20090;-66
2024/02/25 05:50:47;;;;;;;1999.90;999.90;;;;;;;5.57;100.00;99936.91;10221419;29;20127;-66
2024/02/25 05:55:50;;;;;;;1999.90;999.90;;;;;;;5.38;100.00;99942.19;10219453;29;20580;-66
2024/02/25 06:00:52;;;;;;;1999.90;999.90;;;;;;;5.52;100.00;99945.84;10221047;29;20115;-66
2024/02/25 06:05:57;;;;;;;1999.90;999.90;;;;;;;5.36;100.00;99949.22;10219622;29;20051;-66
2024/02/25 06:11:00;;;;;;;1999.90;999.90;;;;;;;5.62;100.00;99957.44;10220620;29;20519;-66
2024/02/25 06:16:02;;;;;;;1999.90;999.90;;;;;;;5.49;100.00;99961.56;10220940;29;20098;-66
2024/02/25 06:21:05;;;;;;;1999.90;999.90;;;;;;;5.40;100.00;99965.47;10219693;29;20491;-66
2024/02/25 06:26:07;;;;;;;1999.90;999.90;;;;;;;5.49;100.00;99962.41;10219813;29;20048;-66
2024/02/25 06:31:10;;;;;;;1999.90;999.90;;;;;;;5.47;100.00;99972.03;10219518;29;20058;-66
2024/02/25 06:36:20;;;;;;;1999.90;999.90;;;;;;;5.61;100.00;99966.16;10217961;29;20555;-66
2024/02/25 06:41:23;;;;;;;1999.90;999.90;;;;;;;5.73;100.00;99978.53;10218041;29;20063;-66
2024/02/25 06:46:26;;;;;;;1999.90;999.90;;;;;;;5.63;100.00;99979.06;10217445;29;20468;-66
2024/02/25 06:51:28;;;;;;;1999.90;999.90;;;;;;;5.69;100.00;99984.78;10218051;29;20047;-66
2024/02/25 06:56:32;;;;;;;1999.90;999.90;;;;;;;5.81;100.00;99982.50;10218889;29;20443;-66
2024/02/25 07:01:34;;;;;;;1999.90;999.90;;;;;;;5.94;100.00;99976.59;10218142;29;20066;-66
2024/02/25 07:06:37;;;;;;;1999.90;999.90;;;;;;;5.90;100.00;99985.47;10217997;29;20403;-66
2024/02/25 07:11:40;;;;;;;1999.90;999.90;;;;;;;6.03;100.00;99985.69;10217769;29;20135;-66
2024/02/25 07:16:43;;;;;;;1999.90;999.90;;;;;;;5.95;100.00;99988.69;10217556;29;20047;-66
2024/02/25 07:21:45;;;;;;;1999.90;999.90;;;;;;;6.08;100.00;100004.50;10218079;29;20051;-66
2024/02/25 07:26:48;;;;;;;1999.90;999.90;;;;;;;5.87;100.00;100002.97;10217777;29;20051;-66
2024/02/25 07:31:53;;;;;;;1999.90;999.90;;;;;;;5.90;100.00;100001.06;10217656;29;20051;-66
2024/02/25 07:36:56;;;;;;;1999.90;999.90;;;;;;;5.62;100.00;99998.16;10217523;29;20083;-66
2024/02/25 07:41:58;;;;;;;1999.90;999.90;;;;;;;5.79;100.00;100008.56;10215953;29;20073;-66
2024/02/25 07:47:00;;;;;;;1999.90;999.90;;;;;;;5.76;100.00;100009.53;10215339;29;20047;-66
2024/02/25 07:52:03;;;;;;;1999.90;999.90;;;;;;;6.08;100.00;100014.88;10215382;29;20057;-66
2024/02/25 07:57:10;;;;;;;1999.90;999.90;;;;;;;6.13;100.00;100010.28;10174295;29;20567;-66
2024/02/25 08:02:13;;;;;;;1999.90;999.90;;;;;;;6.32;100.00;100020.59;10176713;29;20062;-66
2024/02/25 08:07:15;;;;;;;1999.90;999.90;;;;;;;6.15;100.00;100015.41;10177019;29;20135;-66
2024/02/25 08:12:18;;;;;;;1999.90;999.90;;;;;;;6.27;100.00;100019.13;10176777;29;20056;-66
2024/02/25 08:17:20;;;;;;;1999.90;999.90;;;;;;;6.40;100.00;100016.75;10176660;29;20111;-66
2024/02/25 08:22:23;;;;;;;1999.90;999.90;;;;;;;6.79;100.00;100016.41;10190554;29;20393;-66
2024/02/25 08:27:29;;;;;;;1999.90;999.90;;;;;;;6.62;100.00;100009.50;10176377;29;20044;-66
2024/02/25 08:32:32;;;;;;;1999.90;999.90;;;;;;;6.35;100.00;100023.94;10175878;29;20407;-66
2024/02/25 08:37:34;;;;;;;1999.90;999.90;;;;;;;6.76;100.00;100020.91;10176165;29;20130;-66
2024/02/25 08:42:37;;;;;;;1999.90;999.90;;;;;;;6.77;100.00;100027.81;10176046;29;20063;-66
2024/02/25 08:47:39;;;;;;;1999.90;999.90;;;;;;;6.72;100.00;100024.59;10175414;29;20048;-66
2024/02/25 08:52:41;;;;;;;1999.90;999.90;;;;;;;7.35;100.00;100028.97;10175434;29;20068;-66
2024/02/25 08:57:44;;;;;;;1999.90;999.90;;;;;;;7.11;100.00;100025.94;10174688;29;20044;-66
2024/02/25 09:02:47;;;;;;;1999.90;999.90;;;;;;;7.22;100.00;100028.81;10176742;29;20056;-66
2024/02/25 09:07:50;;;;;;;1999.90;999.90;;;;;;;7.27;100.00;100033.78;10187183;29;20123;-67
2024/02/25 09:12:53;;;;;;;1999.90;999.90;;;;;;;7.17;100.00;100031.66;10167951;29;20088;-67
2024/02/25 09:17:58;;;;;;;1999.90;999.90;;;;;;;7.31;100.00;100028.28;10173836;29;20055;-67
2024/02/25 09:23:05;;;;;;;1999.90;999.90;;;;;;;7.69;100.00;100032.25;10215165;29;20401;-66
2024/02/25 09:28:16;;;;;;;1999.90;999.90;;;;;;;7.78;100.00;100031.72;10158293;29;20044;-67
2024/02/25 09:33:20;;;;;;;1999.90;999.90;;;;;;;7.73;100.00;100032.00;10188566;29;20056;-67
2024/02/25 09:38:26;;;;;;;1999.90;999.90;;;;;;;7.62;100.00;100024.78;10188873;29;20052;-66
2024/02/25 09:43:29;;;;;;;1999.90;999.90;;;;;;;8.34;100.00;100022.31;10193308;29;20056;-66
2024/02/25 09:48:31;;;;;;;1999.90;999.90;;;;;;;8.47;99.48;100022.47;10186835;29;20048;-66
2024/02/25 09:53:35;;;;;;;1999.90;999.90;;;;;;;8.13;100.00;100034.03;10171830;29;20088;-66
2024/02/25 09:58:37;;;;;;;1999.90;999.90;;;;;;;8.10;100.00;100031.59;10186812;29;20048;-66
2024/02/25 10:03:41;;;;;;;1999.90;999.90;;;;;;;8.37;100.00;100027.34;10172552;29;20389;-66
2024/02/25 10:08:51;;;;;;;1999.90;999.90;;;;;;;8.16;100.00;100013.81;10196025;29;20052;-66
2024/02/25 10:13:54;;;;;;;1999.90;999.90;;;;;;;10.41;95.20;100017.75;10181383;29;20079;-66
2024/02/25 10:18:56;;;;;;;1999.90;999.90;;;;;;;10.84;89.33;100013.88;10181132;29;20093;-66
2024/02/25 10:23:59;;;;;;;1999.90;999.90;;;;;;;10.02;89.48;100021.28;10194708;29;20439;-66
2024/02/25 10:29:06;;;;;;;1999.90;999.90;;;;;;;9.71;90.32;100030.34;10179473;29;20115;-66
2024/02/25 10:34:09;;;;;;;1999.90;999.90;;;;;;;9.35;94.63;100026.56;10180455;29;20056;-66
2024/02/25 10:39:12;;;;;;;1999.90;999.90;;;;;;;9.36;94.41;100025.63;10179823;29;20436;-66
2024/02/25 10:44:17;;;;;;;1999.90;999.90;;;;;;;8.79;92.69;100026.59;10194722;29;20055;-66
2024/02/25 10:49:20;;;;;;;1999.90;999.90;;;;;;;8.91;94.71;100033.69;10194094;29;20083;-67
2024/02/25 10:54:22;;;;;;;1999.90;999.90;;;;;;;9.08;93.19;100036.06;10194733;29;20064;-67
2024/02/25 10:59:25;;;;;;;1999.90;999.90;;;;;;;9.06;92.46;100030.09;10180451;29;20123;-67
2024/02/25 11:04:27;;;;;;;1999.90;999.90;;;;;;;8.79;93.31;100022.22;10179551;29;20052;-66
2024/02/25 11:09:31;;;;;;;1999.90;999.90;;;;;;;8.71;92.05;100024.50;10180601;29;20059;-66
2024/02/25 11:14:35;;;;;;;1999.90;999.90;;;;;;;9.13;95.08;100021.88;10194154;29;20058;-66
2024/02/25 11:19:40;;;;;;;1999.90;999.90;;;;;;;8.73;92.80;100020.00;10192944;29;20404;-67
2024/02/25 11:24:52;;;;;;;1999.90;999.90;;;;;;;8.67;91.58;100023.81;10178566;29;20060;-67
2024/02/25 11:30:14;;;;;;;1999.90;999.90;;;;;;;9.19;91.34;100011.03;10193164;29;20054;-66
2024/02/25 11:35:18;;;;;;;1999.90;999.90;;;;;;;9.27;88.86;100016.63;10179266;29;20056;-68
2024/02/25 11:40:21;;;;;;;1999.90;999.90;;;;;;;9.42;87.63;100015.63;10193227;29;20060;-67
2024/02/25 11:45:23;;;;;;;1999.90;999.90;;;;;;;9.66;85.55;100005.31;10176212;29;20675;-67
2024/02/25 11:50:26;;;;;;;1999.90;999.90;;;;;;;10.31;85.14;100006.22;10191292;29;20063;-67
2024/02/25 11:55:29;;;;;;;1999.90;999.90;;;;;;;10.14;85.55;100002.13;10191590;29;20075;-67
2024/02/25 12:00:32;;;;;;;1999.90;999.90;;;;;;;10.06;84.93;100001.81;10177110;29;20087;-67
2024/02/25 12:05:35;;;;;;;1999.90;999.90;;;;;;;9.83;85.05;100003.38;10176553;29;20119;-67
2024/02/25 12:10:38;;;;;;;1999.90;999.90;;;;;;;9.69;85.83;100003.47;10177118;29;20107;-66
2024/02/25 12:15:42;;;;;;;1999.90;999.90;;;;;;;9.56;84.36;99996.41;10191429;29;20052;-67
2024/02/25 12:20:45;;;;;;;1999.90;999.90;;;;;;;9.68;82.80;99997.38;10176567;29;20052;-66
2024/02/25 12:25:49;;;;;;;1999.90;999.90;;;;;;;11.29;81.96;99980.09;10175103;29;20107;-66
2024/02/25 12:30:52;;;;;;;1999.90;999.90;;;;;;;11.60;77.88;99982.22;10175996;29;20488;-67
2024/02/25 12:35:56;;;;;;;1999.90;999.90;;;;;;;12.25;76.64;99981.69;10175594;29;20158;-67
2024/02/25 12:41:02;;;;;;;1999.90;999.90;;;;;;;10.93;75.74;99973.97;10176070;29;20182;-66
2024/02/25 12:46:04;;;;;;;1999.90;999.90;;;;;;;12.13;76.79;99979.16;10175855;29;20084;-67
2024/02/25 12:51:07;;;;;;;1999.90;999.90;;;;;;;11.80;74.64;99970.25;10189721;29;20079;-67
2024/02/25 12:56:10;;;;;;;1999.90;999.90;;;;;;;12.50;74.64;99965.78;10189613;29;20534;-67
2024/02/25 13:01:13;;;;;;;1999.90;999.90;;;;;;;12.35;71.90;99966.03;10189894;29;20058;-67
2024/02/25 13:06:16;;;;;;;1999.90;999.90;;;;;;;11.65;73.91;99962.59;10175359;29;20079;-67
2024/02/25 13:11:18;;;;;;;1999.90;999.90;;;;;;;11.83;76.18;99957.72;10175394;29;20063;-67
2024/02/25 13:16:20;;;;;;;1999.90;999.90;;;;;;;12.25;73.76;99947.56;10189837;29;20056;-67
2024/02/25 13:21:24;;;;;;;1999.90;999.90;;;;;;;12.70;70.33;99940.59;10189109;29;20412;-67
2024/02/25 13:26:26;;;;;;;1999.90;999.90;;;;;;;11.50;71.82;99942.78;10174309;29;20559;-67
2024/02/25 13:31:28;;;;;;;1999.90;999.90;;;;;;;11.71;70.01;99937.69;10175252;29;20048;-67
2024/02/25 13:36:33;;;;;;;1999.90;999.90;;;;;;;11.46;72.86;99938.69;10173802;29;20052;-67
2024/02/25 13:41:36;;;;;;;1999.90;999.90;;;;;;;13.33;70.08;99938.97;10179106;29;20052;-67
2024/02/25 13:46:38;;;;;;;1999.90;999.90;;;;;;;12.08;69.94;99930.47;10182338;29;20047;-67
2024/02/25 13:51:44;;;;;;;1999.90;999.90;;;;;;;17.17;61.80;99925.47;10182242;29;20062;-67
2024/02/25 13:56:46;;;;;;;1999.90;999.90;;;;;;;15.72;57.30;99909.38;10195620;29;20088;-67
2024/02/25 14:01:49;;;;;;;1999.90;999.90;;;;;;;13.75;63.63;99927.59;10181788;29;20056;-67
2024/02/25 14:06:51;;;;;;;1999.90;999.90;;;;;;;19.25;53.06;99897.94;10181606;29;20052;-67
2024/02/25 14:11:54;;;;;;;1999.90;999.90;;;;;;;14.78;53.37;99915.28;10196154;29;20059;-67
2024/02/25 14:17:00;;;;;;;1999.90;999.90;;;;;;;20.26;49.73;99898.38;10179587;29;20548;-66
2024/02/25 14:22:03;;;;;;;1999.90;999.90;;;;;;;15.61;54.74;99910.38;10181136;29;20060;-67
2024/02/25 14:27:05;;;;;;;1999.90;999.90;;;;;;;13.38;60.73;99917.53;10180387;29;20127;-67
2024/02/25 14:32:08;;;;;;;1999.90;999.90;;;;;;;12.24;65.58;99908.31;10194695;29;20056;-67
2024/02/25 14:37:14;;;;;;;1999.90;999.90;;;;;;;11.95;64.53;99907.94;10178979;29;20500;-67
2024/02/25 14:42:17;;;;;;;1999.90;999.90;;;;;;;11.93;67.45;99913.31;10193785;29;20551;-67
2024/02/25 14:47:19;;;;;;;1999.90;999.90;;;;;;;11.80;66.66;99902.91;10179668;29;20052;-67
2024/02/25 14:52:22;;;;;;;1999.90;999.90;;;;;;;11.02;67.39;99909.59;10179585;29;20056;-67
2024/02/25 14:57:24;;;;;;;1999.90;999.90;;;;;;;11.20;66.92;99896.94;10193554;29;20407;-68
2024/02/25 15:02:27;;;;;;;1999.90;999.90;;;;;;;11.27;67.41;99902.56;10179659;29;20055;-68
2024/02/25 15:07:29;;;;;;;1999.90;999.90;;;;;;;10.18;73.87;99906.81;10179229;29;20493;-67
2024/02/25 15:12:31;;;;;;;1999.90;999.90;;;;;;;9.25;83.71;99945.34;10179272;29;20066;-67
2024/02/25 15:17:37;;;;;;;1999.90;999.90;;;;;;;8.47;92.12;99931.16;10178973;29;20052;-67
2024/02/25 15:22:40;;;;;;;1999.90;999.90;;;;;;;10.65;89.44;99901.81;10192994;29;20078;-67
2024/02/25 15:27:43;;;;;;;1999.90;999.90;;;;;;;15.11;72.46;99885.03;10177953;29;20097;-68
2024/02/25 15:32:45;;;;;;;1999.90;999.90;;;;;;;14.25;69.01;99887.38;10178540;29;20062;-68
2024/02/25 15:37:48;;;;;;;1999.90;999.90;;;;;;;12.19;74.66;99895.53;10192192;29;20051;-67
2024/02/25 15:42:51;;;;;;;1999.90;999.90;;;;;;;12.60;77.55;99887.97;10178185;29;20052;-67
2024/02/25 15:47:53;;;;;;;1999.90;999.90;;;;;;;10.90;79.67;99886.94;10177873;29;20099;-67
2024/02/25 15:52:56;;;;;;;1999.90;999.90;;;;;;;11.24;79.00;99882.63;10192135;29;20084;-67
2024/02/25 15:57:58;;;;;;;1999.90;999.90;;;;;;;9.73;86.51;99882.88;10177606;29;20048;-67
2024/02/25 16:03:01;;;;;;;1999.90;999.90;;;;;;;9.24;88.88;99878.38;10176094;29;20448;-67
2024/02/25 16:08:05;;;;;;;1999.90;999.90;;;;;;;8.82;91.44;99875.03;10176952;29;20055;-67
2024/02/25 16:13:10;;;;;;;1999.90;999.90;;;;;;;8.52;93.22;99871.69;10191381;29;20056;-67
2024/02/25 16:18:12;;;;;;;1999.90;999.90;;;;;;;8.37;96.28;99872.59;10177015;29;20047;-67
2024/02/25 16:23:15;;;;;;;1999.90;999.90;;;;;;;8.14;96.87;99872.28;10176696;29;20145;-67
2024/02/25 16:28:18;;;;;;;1999.90;999.90;;;;;;;7.94;97.41;99875.28;10175838;29;20480;-67
2024/02/25 16:33:20;;;;;;;1999.90;999.90;;;;;;;7.76;98.76;99874.63;10176406;29;20058;-67
2024/02/25 16:38:23;;;;;;;1999.90;999.90;;;;;;;7.46;100.00;99879.91;10176199;29;20131;-68
2024/02/25 16:43:25;;;;;;;1999.90;999.90;;;;;;;7.40;100.00;99871.53;10175463;29;20070;-67
2024/02/25 16:48:28;;;;;;;1999.90;999.90;;;;;;;7.12;100.00;99869.69;10175836;29;20137;-67
2024/02/25 16:53:30;;;;;;;1999.90;999.90;;;;;;;6.91;100.00;99876.97;10175406;29;20052;-68
2024/02/25 16:58:32;;;;;;;1999.90;999.90;;;;;;;6.61;100.00;99882.13;10190275;29;20135;-68
2024/02/25 17:03:36;;;;;;;1999.90;999.90;;;;;;;6.49;100.00;99884.47;10175594;29;20066;-68
2024/02/25 17:08:39;;;;;;;1999.90;999.90;;;;;;;6.31;100.00;99901.09;10189496;29;20445;-68
2024/02/25 17:13:42;;;;;;;1999.90;999.90;;;;;;;6.29;100.00;99900.34;10176198;29;20061;-68
2024/02/25 17:18:44;;;;;;;1999.90;999.90;;;;;;;6.30;100.00;99905.47;10182918;29;20408;-68
2024/02/25 17:23:47;;;;;;;1999.90;999.90;;;;;;;5.89;100.00;99911.03;10183909;29;20056;-67
2024/02/25 17:28:53;;;;;;;1999.90;999.90;;;;;;;5.93;100.00;99916.91;10197531;29;20069;-68
2024/02/25 17:33:56;;;;;;;1999.90;999.90;;;;;;;5.93;100.00;99914.31;10183003;29;20082;-67
2024/02/25 17:38:58;;;;;;;1999.90;999.90;;;;;;;6.08;100.00;99908.34;10182140;29;20488;-67
2024/02/25 17:44:01;;;;;;;1999.90;999.90;;;;;;;5.98;100.00;99925.34;10182768;29;20060;-67
2024/02/25 17:49:04;;;;;;;1999.90;999.90;;;;;;;5.88;100.00;99924.94;10182266;29;20048;-67
2024/02/25 17:54:08;;;;;;;1999.90;999.90;;;;;;;5.79;100.00;99935.81;10181575;29;20142;-67
2024/02/25 17:59:11;;;;;;;1999.90;999.90;;;;;;;5.76;100.00;99936.78;10196599;29;20079;-67
2024/02/25 18:04:13;;;;;;;1999.90;999.90;;;;;;;5.93;100.00;99927.31;10182030;29;20055;-67
2024/02/25 18:09:16;;;;;;;1999.90;999.90;;;;;;;5.79;100.00;99929.78;10180929;29;20407;-67
2024/02/25 18:14:22;;;;;;;1999.90;999.90;;;;;;;5.82;100.00;99932.25;10195416;29;20060;-67
2024/02/25 18:19:24;;;;;;;1999.90;999.90;;;;;;;5.87;100.00;99923.28;10181239;29;20048;-67
2024/02/25 18:24:27;;;;;;;1999.90;999.90;;;;;;;5.88;100.00;99930.13;10180973;29;20063;-67
2024/02/25 18:29:29;;;;;;;1999.90;999.90;;;;;;;5.50;100.00;99932.13;10180323;29;20055;-67
2024/02/25 18:34:31;;;;;;;1999.90;999.90;;;;;;;5.63;100.00;99938.38;10180746;29;20056;-67
2024/02/25 18:39:34;;;;;;;1999.90;999.90;;;;;;;5.45;100.00;99931.50;10180516;29;20082;-67
2024/02/25 18:44:36;;;;;;;1999.90;999.90;;;;;;;5.64;100.00;99936.59;10194953;29;20054;-67
2024/02/25 18:49:39;;;;;;;1999.90;999.90;;;;;;;5.50;100.00;99938.13;10179841;29;20052;-67
2024/02/25 18:54:42;;;;;;;1999.90;999.90;;;;;;;5.46;100.00;99936.59;10179999;29;20060;-67
2024/02/25 18:59:44;;;;;;;1999.90;999.90;;;;;;;5.42;100.00;99931.66;10179208;29;20400;-67
2024/02/25 19:04:47;;;;;;;1999.90;999.90;;;;;;;5.32;100.00;99932.09;10179583;29;20079;-66
2024/02/25 19:09:49;;;;;;;1999.90;999.90;;;;;;;5.27;100.00;99921.09;10194029;29;20097;-66
2024/02/25 19:14:53;;;;;;;1999.90;999.90;;;;;;;5.43;100.00;99908.22;10179298;29;20063;-66
2024/02/25 19:19:55;;;;;;;1999.90;999.90;;;;;;;5.32;100.00;99910.50;10178151;29;20052;-66
2024/02/25 19:24:59;;;;;;;1999.90;999.90;;;;;;;5.30;100.00;99901.94;10178270;29;20060;-66
2024/02/25 19:30:01;;;;;;;1999.90;999.90;;;;;;;5.17;100.00;99892.16;10178527;29;20056;-66
2024/02/25 19:35:04;;;;;;;1999.90;999.90;;;;;;;5.18;100.00;99888.66;10178476;29;20048;-66
2024/02/25 19:40:07;;;;;;;1999.90;999.90;;;;;;;5.09;100.00;99896.06;10176658;29;20127;-66
2024/02/25 19:45:10;;;;;;;1999.90;999.90;;;;;;;4.93;100.00;99890.78;10177515;29;20484;-66
2024/02/25 19:50:13;;;;;;;1999.90;999.90;;;;;;;5.06;100.00;99889.28;10177818;29;20131;-66
2024/02/25 19:55:15;;;;;;;1999.90;999.90;;;;;;;5.33;100.00;99888.78;10177016;29;20060;-66
2024/02/25 20:00:18;;;;;;;1999.90;999.90;;;;;;;5.27;100.00;99889.94;10176388;29;20059;-66
2024/02/25 20:05:21;;;;;;;1999.90;999.90;;;;;;;5.18;100.00;99885.22;10177581;29;20229;-67
2024/02/25 20:10:23;;;;;;;1999.90;999.90;;;;;;;5.18;100.00;99893.03;10197135;23;20064;-66
2024/02/25 20:15:25;;;;;;;1999.90;999.90;;;;;;;5.14;100.00;99891.47;10191540;29;20048;-66
2024/02/25 20:20:31;;;;;;;1999.90;999.90;;;;;;;5.08;100.00;99892.63;10176804;29;20058;-66
2024/02/25 20:25:34;;;;;;;1999.90;999.90;;;;;;;4.93;100.00;99890.78;10176778;29;20056;-65
2024/02/25 20:30:37;;;;;;;1999.90;999.90;;;;;;;5.00;100.00;99892.16;10190309;29;20402;-65
2024/02/25 20:35:40;;;;;;;1999.90;999.90;;;;;;;4.59;100.00;99892.38;10176427;29;20104;-66
2024/02/25 20:40:43;;;;;;;1999.90;999.90;;;;;;;4.86;100.00;99891.97;10174830;29;20067;-65
2024/02/25 20:45:45;;;;;;;1999.90;999.90;;;;;;;4.68;100.00;99899.72;10176082;29;20051;-66
2024/02/25 20:50:48;;;;;;;1999.90;999.90;;;;;;;4.80;100.00;99919.88;10175599;29;20064;-66
2024/02/25 20:55:50;;;;;;;1999.90;999.90;;;;;;;4.93;100.00;99909.78;10175824;29;20060;-66
2024/02/25 21:00:53;;;;;;;1999.90;999.90;;;;;;;4.91;100.00;99897.78;10175711;29;20060;-65
2024/02/25 21:05:56;;;;;;;1999.90;999.90;;;;;;;5.28;100.00;99898.56;10175571;29;20060;-65
2024/02/25 21:11:00;;;;;;;1999.90;999.90;;;;;;;5.22;100.00;99890.16;10189307;29;20052;-66
2024/02/25 21:16:03;;;;;;;1999.90;999.90;;;;;;;5.06;100.00;99883.22;10175039;29;20078;-66
2024/02/25 21:21:06;;;;;;;1999.90;999.90;;;;;;;5.38;100.00;99876.44;10175276;29;20127;-65
2024/02/25 21:26:08;;;;;;;1999.90;999.90;;;;;;;5.22;100.00;99876.38;10190161;29;20062;-65
2024/02/25 21:31:11;;;;;;;1999.90;999.90;;;;;;;5.12;100.00;99888.13;10174456;29;20571;-65
2024/02/25 21:36:14;;;;;;;1999.90;999.90;;;;;;;5.02;100.00;99883.38;10175054;29;20095;-66
2024/02/25 21:41:17;;;;;;;1999.90;999.90;;;;;;;4.96;100.00;99870.72;10174922;29;20053;-66
2024/02/25 21:46:19;;;;;;;1999.90;999.90;;;;;;;4.73;100.00;99871.81;10189363;29;20056;-65
2024/02/25 21:51:21;;;;;;;1999.90;999.90;;;;;;;4.79;100.00;99860.31;10174033;29;20143;-66
2024/02/25 21:56:24;;;;;;;1999.90;999.90;;;;;;;4.84;100.00;99860.91;10174596;29;20060;-66
2024/02/25 22:01:26;;;;;;;1999.90;999.90;;;;;;;4.71;100.00;99855.50;10176348;29;20063;-65
2024/02/25 22:06:28;;;;;;;1999.90;999.90;;;;;;;4.93;100.00;99854.47;10181271;29;20491;-65
2024/02/25 22:11:31;;;;;;;1999.90;999.90;;;;;;;4.84;100.00;99843.63;10181298;29;20482;-66